sensor_id;sensor_type;location;lat;lon;timestamp;temperature;humidity
28677;DHT22;15858;48.338;11.078;2022-12-07T00:01:22;3.10;99.90
28677;DHT22;15858;48.338;11.078;2022-12-07T00:03:50;3.10;99.90
28677;DHT22;15858;48.338;11.078;2022-12-07T00:06:18;3.10;99.90
28677;DHT22;15858;48.338;11.078;2022-12-07T00:08:46;3.10;99.90
28677;DHT22;15858;48.338;11.078;2022-12-07T00:11:15;3.10;99.90
28677;DHT22;15858;48.338;11.078;2022-12-07T00:13:43;3.10;99.90
28677;DHT22;15858;48.338;11.078;2022-12-07T00:16:12;3.10;99.90
28677;DHT22;15858;48.338;11.078;2022-12-07T00:18:40;3.10;99.90
28677;DHT22;15858;48.338;11.078;2022-12-07T00:23:36;3.20;99.90
28677;DHT22;15858;48.338;11.078;2022-12-07T00:26:07;3.20;99.90
28677;DHT22;15858;48.338;11.078;2022-12-07T00:28:34;3.20;99.90
28677;DHT22;15858;48.338;11.078;2022-12-07T00:31:03;3.20;99.90
28677;DHT22;15858;48.338;11.078;2022-12-07T00:33:31;3.20;99.90
28677;DHT22;15858;48.338;11.078;2022-12-07T00:35:58;3.20;99.90
28677;DHT22;15858;48.338;11.078;2022-12-07T00:38:28;3.10;99.90
28677;DHT22;15858;48.338;11.078;2022-12-07T00:41:03;3.10;99.90
28677;DHT22;15858;48.338;11.078;2022-12-07T00:43:30;3.20;99.90
28677;DHT22;15858;48.338;11.078;2022-12-07T00:45:58;3.20;99.90
28677;DHT22;15858;48.338;11.078;2022-12-07T00:48:25;3.20;99.90
28677;DHT22;15858;48.338;11.078;2022-12-07T00:50:52;3.20;99.90
28677;DHT22;15858;48.338;11.078;2022-12-07T00:53:19;3.20;99.90
28677;DHT22;15858;48.338;11.078;2022-12-07T00:55:46;3.20;99.90
28677;DHT22;15858;48.338;11.078;2022-12-07T00:58:12;3.20;99.90
28677;DHT22;15858;48.338;11.078;2022-12-07T01:00:40;3.10;99.90
28677;DHT22;15858;48.338;11.078;2022-12-07T01:03:09;3.10;99.90
28677;DHT22;15858;48.338;11.078;2022-12-07T01:05:36;3.10;99.90
28677;DHT22;15858;48.338;11.078;2022-12-07T01:08:03;3.10;99.90
28677;DHT22;15858;48.338;11.078;2022-12-07T01:10:30;3.10;99.90
28677;DHT22;15858;48.338;11.078;2022-12-07T01:12:57;3.10;99.90
28677;DHT22;15858;48.338;11.078;2022-12-07T01:15:25;3.10;99.90
28677;DHT22;15858;48.338;11.078;2022-12-07T01:17:52;3.10;99.90
28677;DHT22;15858;48.338;11.078;2022-12-07T01:20:19;3.10;99.90
28677;DHT22;15858;48.338;11.078;2022-12-07T01:22:46;3.10;99.90
28677;DHT22;15858;48.338;11.078;2022-12-07T01:25:12;3.10;99.90
28677;DHT22;15858;48.338;11.078;2022-12-07T01:27:39;3.20;99.90
28677;DHT22;15858;48.338;11.078;2022-12-07T01:30:06;3.10;99.90
28677;DHT22;15858;48.338;11.078;2022-12-07T01:32:33;3.10;99.90
28677;DHT22;15858;48.338;11.078;2022-12-07T01:35:00;3.10;99.90
28677;DHT22;15858;48.338;11.078;2022-12-07T01:37:27;3.10;99.90
28677;DHT22;15858;48.338;11.078;2022-12-07T01:39:53;3.10;99.90
28677;DHT22;15858;48.338;11.078;2022-12-07T01:42:20;3.10;99.90
28677;DHT22;15858;48.338;11.078;2022-12-07T01:47:49;3.10;99.90
28677;DHT22;15858;48.338;11.078;2022-12-07T01:50:17;3.10;99.90
28677;DHT22;15858;48.338;11.078;2022-12-07T01:52:45;3.10;99.90
28677;DHT22;15858;48.338;11.078;2022-12-07T01:55:15;3.10;99.90
28677;DHT22;15858;48.338;11.078;2022-12-07T01:57:45;3.10;99.90
28677;DHT22;15858;48.338;11.078;2022-12-07T02:00:13;3.10;99.90
28677;DHT22;15858;48.338;11.078;2022-12-07T02:05:15;3.10;99.90
28677;DHT22;15858;48.338;11.078;2022-12-07T02:07:43;3.10;99.90
28677;DHT22;15858;48.338;11.078;2022-12-07T02:10:15;3.10;99.90
28677;DHT22;15858;48.338;11.078;2022-12-07T02:12:44;3.10;99.90
28677;DHT22;15858;48.338;11.078;2022-12-07T02:15:11;3.10;99.90
28677;DHT22;15858;48.338;11.078;2022-12-07T02:18:00;3.10;99.90
28677;DHT22;15858;48.338;11.078;2022-12-07T02:26:14;3.10;99.90
28677;DHT22;15858;48.338;11.078;2022-12-07T02:29:10;3.10;99.90
28677;DHT22;15858;48.338;11.078;2022-12-07T02:32:26;3.00;99.90
28677;DHT22;15858;48.338;11.078;2022-12-07T02:34:51;3.00;99.90
28677;DHT22;15858;48.338;11.078;2022-12-07T02:37:31;3.00;99.90
28677;DHT22;15858;48.338;11.078;2022-12-07T02:40:14;3.00;99.90
28677;DHT22;15858;48.338;11.078;2022-12-07T02:42:47;3.00;99.90
28677;DHT22;15858;48.338;11.078;2022-12-07T02:45:17;3.00;99.90
28677;DHT22;15858;48.338;11.078;2022-12-07T02:47:48;3.00;99.90
28677;DHT22;15858;48.338;11.078;2022-12-07T02:50:19;3.00;99.90
28677;DHT22;15858;48.338;11.078;2022-12-07T02:52:46;3.00;99.90
28677;DHT22;15858;48.338;11.078;2022-12-07T02:55:16;3.00;99.90
28677;DHT22;15858;48.338;11.078;2022-12-07T02:57:58;3.00;99.90
28677;DHT22;15858;48.338;11.078;2022-12-07T03:00:28;2.90;99.90
28677;DHT22;15858;48.338;11.078;2022-12-07T03:03:09;3.00;99.90
28677;DHT22;15858;48.338;11.078;2022-12-07T03:05:58;2.90;99.90
28677;DHT22;15858;48.338;11.078;2022-12-07T03:09:20;2.80;99.90
28677;DHT22;15858;48.338;11.078;2022-12-07T03:11:55;2.90;99.90
28677;DHT22;15858;48.338;11.078;2022-12-07T03:14:31;2.90;99.90
28677;DHT22;15858;48.338;11.078;2022-12-07T03:17:15;2.90;99.90
28677;DHT22;15858;48.338;11.078;2022-12-07T03:19:43;2.90;99.90
28677;DHT22;15858;48.338;11.078;2022-12-07T03:22:13;2.90;99.90
28677;DHT22;15858;48.338;11.078;2022-12-07T03:24:53;2.90;99.90
28677;DHT22;15858;48.338;11.078;2022-12-07T03:27:57;2.90;99.90
28677;DHT22;15858;48.338;11.078;2022-12-07T03:30:46;2.90;99.90
28677;DHT22;15858;48.338;11.078;2022-12-07T03:33:27;2.90;99.90
28677;DHT22;15858;48.338;11.078;2022-12-07T03:36:08;2.90;99.90
28677;DHT22;15858;48.338;11.078;2022-12-07T03:38:41;2.90;99.90
28677;DHT22;15858;48.338;11.078;2022-12-07T03:41:12;2.80;99.90
28677;DHT22;15858;48.338;11.078;2022-12-07T03:43:42;2.90;99.90
28677;DHT22;15858;48.338;11.078;2022-12-07T03:46:19;2.90;99.90
28677;DHT22;15858;48.338;11.078;2022-12-07T03:51:34;2.90;99.90
28677;DHT22;15858;48.338;11.078;2022-12-07T03:54:22;2.90;99.90
28677;DHT22;15858;48.338;11.078;2022-12-07T03:56:50;2.90;99.90
28677;DHT22;15858;48.338;11.078;2022-12-07T03:59:18;2.90;99.90
28677;DHT22;15858;48.338;11.078;2022-12-07T04:01:54;2.90;99.90
28677;DHT22;15858;48.338;11.078;2022-12-07T04:04:23;2.90;99.90
28677;DHT22;15858;48.338;11.078;2022-12-07T04:06:51;2.90;99.90
28677;DHT22;15858;48.338;11.078;2022-12-07T04:09:17;2.90;99.90
28677;DHT22;15858;48.338;11.078;2022-12-07T04:11:44;2.90;99.90
28677;DHT22;15858;48.338;11.078;2022-12-07T04:14:11;2.90;99.90
28677;DHT22;15858;48.338;11.078;2022-12-07T04:16:37;2.90;99.90
28677;DHT22;15858;48.338;11.078;2022-12-07T04:19:10;2.90;99.90
28677;DHT22;15858;48.338;11.078;2022-12-07T04:21:36;2.80;99.90
28677;DHT22;15858;48.338;11.078;2022-12-07T04:24:04;2.80;99.90
28677;DHT22;15858;48.338;11.078;2022-12-07T04:26:30;2.80;99.90
28677;DHT22;15858;48.338;11.078;2022-12-07T04:28:57;2.90;99.90
28677;DHT22;15858;48.338;11.078;2022-12-07T04:31:30;2.90;99.90
28677;DHT22;15858;48.338;11.078;2022-12-07T04:33:57;2.80;99.90
28677;DHT22;15858;48.338;11.078;2022-12-07T04:36:23;2.80;99.90
28677;DHT22;15858;48.338;11.078;2022-12-07T04:38:53;2.80;99.90
28677;DHT22;15858;48.338;11.078;2022-12-07T04:41:21;2.80;99.90
28677;DHT22;15858;48.338;11.078;2022-12-07T04:43:47;2.80;99.90
28677;DHT22;15858;48.338;11.078;2022-12-07T04:46:14;2.80;99.90
28677;DHT22;15858;48.338;11.078;2022-12-07T04:48:40;2.80;99.90
28677;DHT22;15858;48.338;11.078;2022-12-07T04:51:07;2.80;99.90
28677;DHT22;15858;48.338;11.078;2022-12-07T04:53:34;2.80;99.90
28677;DHT22;15858;48.338;11.078;2022-12-07T04:56:00;2.80;99.90
28677;DHT22;15858;48.338;11.078;2022-12-07T04:58:27;2.80;99.90
28677;DHT22;15858;48.338;11.078;2022-12-07T05:00:54;2.80;99.90
28677;DHT22;15858;48.338;11.078;2022-12-07T05:03:21;2.80;99.90
28677;DHT22;15858;48.338;11.078;2022-12-07T05:05:47;2.80;99.90
28677;DHT22;15858;48.338;11.078;2022-12-07T05:08:14;2.80;99.90
28677;DHT22;15858;48.338;11.078;2022-12-07T05:10:41;2.80;99.90
28677;DHT22;15858;48.338;11.078;2022-12-07T05:13:07;2.70;99.90
28677;DHT22;15858;48.338;11.078;2022-12-07T05:15:34;2.70;99.90
28677;DHT22;15858;48.338;11.078;2022-12-07T05:18:01;2.70;99.90
28677;DHT22;15858;48.338;11.078;2022-12-07T05:20:27;2.70;99.90
28677;DHT22;15858;48.338;11.078;2022-12-07T05:22:54;2.70;99.90
28677;DHT22;15858;48.338;11.078;2022-12-07T05:25:20;2.70;99.90
28677;DHT22;15858;48.338;11.078;2022-12-07T05:27:47;2.70;99.90
28677;DHT22;15858;48.338;11.078;2022-12-07T05:30:14;2.70;99.90
28677;DHT22;15858;48.338;11.078;2022-12-07T05:32:40;2.60;99.90
28677;DHT22;15858;48.338;11.078;2022-12-07T05:35:07;2.60;99.90
28677;DHT22;15858;48.338;11.078;2022-12-07T05:37:34;2.50;99.90
28677;DHT22;15858;48.338;11.078;2022-12-07T05:40:00;2.40;99.90
28677;DHT22;15858;48.338;11.078;2022-12-07T05:42:28;2.40;99.90
28677;DHT22;15858;48.338;11.078;2022-12-07T05:44:54;2.50;99.90
28677;DHT22;15858;48.338;11.078;2022-12-07T05:47:21;2.40;99.90
28677;DHT22;15858;48.338;11.078;2022-12-07T05:49:47;2.40;99.90
28677;DHT22;15858;48.338;11.078;2022-12-07T05:52:14;2.40;99.90
28677;DHT22;15858;48.338;11.078;2022-12-07T05:54:41;2.30;99.90
28677;DHT22;15858;48.338;11.078;2022-12-07T05:57:08;2.40;99.90
28677;DHT22;15858;48.338;11.078;2022-12-07T05:59:34;2.40;99.90
28677;DHT22;15858;48.338;11.078;2022-12-07T06:02:07;2.40;99.90
28677;DHT22;15858;48.338;11.078;2022-12-07T06:04:37;2.40;99.90
28677;DHT22;15858;48.338;11.078;2022-12-07T06:07:05;2.40;99.90
28677;DHT22;15858;48.338;11.078;2022-12-07T06:09:32;2.40;99.90
28677;DHT22;15858;48.338;11.078;2022-12-07T06:11:59;2.40;99.90
28677;DHT22;15858;48.338;11.078;2022-12-07T06:14:26;2.30;99.90
28677;DHT22;15858;48.338;11.078;2022-12-07T06:16:53;2.30;99.90
28677;DHT22;15858;48.338;11.078;2022-12-07T06:19:19;2.40;99.90
28677;DHT22;15858;48.338;11.078;2022-12-07T06:21:46;2.30;99.90
28677;DHT22;15858;48.338;11.078;2022-12-07T06:24:14;2.30;99.90
28677;DHT22;15858;48.338;11.078;2022-12-07T06:26:41;2.30;99.90
28677;DHT22;15858;48.338;11.078;2022-12-07T06:29:08;2.30;99.90
28677;DHT22;15858;48.338;11.078;2022-12-07T06:31:36;2.30;99.90
28677;DHT22;15858;48.338;11.078;2022-12-07T06:34:05;2.20;99.90
28677;DHT22;15858;48.338;11.078;2022-12-07T06:36:32;2.20;99.90
28677;DHT22;15858;48.338;11.078;2022-12-07T06:38:59;2.20;99.90
28677;DHT22;15858;48.338;11.078;2022-12-07T06:41:26;2.20;99.90
28677;DHT22;15858;48.338;11.078;2022-12-07T06:43:52;2.30;99.90
28677;DHT22;15858;48.338;11.078;2022-12-07T06:46:22;2.20;99.90
28677;DHT22;15858;48.338;11.078;2022-12-07T06:48:49;2.30;99.90
28677;DHT22;15858;48.338;11.078;2022-12-07T06:51:15;2.30;99.90
28677;DHT22;15858;48.338;11.078;2022-12-07T06:53:42;2.30;99.90
28677;DHT22;15858;48.338;11.078;2022-12-07T06:56:09;2.30;99.90
28677;DHT22;15858;48.338;11.078;2022-12-07T06:58:35;2.30;99.90
28677;DHT22;15858;48.338;11.078;2022-12-07T07:01:02;2.30;99.90
28677;DHT22;15858;48.338;11.078;2022-12-07T07:03:29;2.30;99.90
28677;DHT22;15858;48.338;11.078;2022-12-07T07:05:56;2.30;99.90
28677;DHT22;15858;48.338;11.078;2022-12-07T07:08:22;2.20;99.90
28677;DHT22;15858;48.338;11.078;2022-12-07T07:10:50;2.20;99.90
28677;DHT22;15858;48.338;11.078;2022-12-07T07:13:16;2.20;99.90
28677;DHT22;15858;48.338;11.078;2022-12-07T07:15:43;2.20;99.90
28677;DHT22;15858;48.338;11.078;2022-12-07T07:18:10;2.10;99.90
28677;DHT22;15858;48.338;11.078;2022-12-07T07:20:37;2.10;99.90
28677;DHT22;15858;48.338;11.078;2022-12-07T07:23:04;2.20;99.90
28677;DHT22;15858;48.338;11.078;2022-12-07T07:25:31;2.10;99.90
28677;DHT22;15858;48.338;11.078;2022-12-07T07:27:58;2.10;99.90
28677;DHT22;15858;48.338;11.078;2022-12-07T07:30:25;2.10;99.90
28677;DHT22;15858;48.338;11.078;2022-12-07T07:33:00;2.00;99.90
28677;DHT22;15858;48.338;11.078;2022-12-07T07:35:27;2.10;99.90
28677;DHT22;15858;48.338;11.078;2022-12-07T07:37:54;2.10;99.90
28677;DHT22;15858;48.338;11.078;2022-12-07T07:40:21;2.10;99.90
28677;DHT22;15858;48.338;11.078;2022-12-07T07:42:51;2.10;99.90
28677;DHT22;15858;48.338;11.078;2022-12-07T07:45:19;2.10;99.90
28677;DHT22;15858;48.338;11.078;2022-12-07T07:47:46;2.10;99.90
28677;DHT22;15858;48.338;11.078;2022-12-07T07:50:13;2.10;99.90
28677;DHT22;15858;48.338;11.078;2022-12-07T07:52:40;2.10;99.90
28677;DHT22;15858;48.338;11.078;2022-12-07T07:55:07;2.20;99.90
28677;DHT22;15858;48.338;11.078;2022-12-07T07:57:34;2.20;99.90
28677;DHT22;15858;48.338;11.078;2022-12-07T08:00:03;2.30;99.90
28677;DHT22;15858;48.338;11.078;2022-12-07T08:02:30;2.30;99.90
28677;DHT22;15858;48.338;11.078;2022-12-07T08:04:57;2.30;99.90
28677;DHT22;15858;48.338;11.078;2022-12-07T08:07:23;2.30;99.90
28677;DHT22;15858;48.338;11.078;2022-12-07T08:09:50;2.30;99.90
28677;DHT22;15858;48.338;11.078;2022-12-07T08:12:17;2.40;99.90
28677;DHT22;15858;48.338;11.078;2022-12-07T08:14:43;2.40;99.90
28677;DHT22;15858;48.338;11.078;2022-12-07T08:17:10;2.40;99.90
28677;DHT22;15858;48.338;11.078;2022-12-07T08:19:36;2.40;99.90
28677;DHT22;15858;48.338;11.078;2022-12-07T08:22:03;2.40;99.90
28677;DHT22;15858;48.338;11.078;2022-12-07T08:24:30;2.50;99.90
28677;DHT22;15858;48.338;11.078;2022-12-07T08:26:56;2.40;99.90
28677;DHT22;15858;48.338;11.078;2022-12-07T08:29:23;2.50;99.90
28677;DHT22;15858;48.338;11.078;2022-12-07T08:31:49;2.40;99.90
28677;DHT22;15858;48.338;11.078;2022-12-07T08:34:16;2.50;99.90
28677;DHT22;15858;48.338;11.078;2022-12-07T08:36:42;2.50;99.90
28677;DHT22;15858;48.338;11.078;2022-12-07T08:39:09;2.50;99.90
28677;DHT22;15858;48.338;11.078;2022-12-07T08:41:56;2.60;99.90
28677;DHT22;15858;48.338;11.078;2022-12-07T08:44:22;2.60;99.90
28677;DHT22;15858;48.338;11.078;2022-12-07T08:47:02;2.60;99.90
28677;DHT22;15858;48.338;11.078;2022-12-07T08:49:41;2.60;99.90
28677;DHT22;15858;48.338;11.078;2022-12-07T08:52:08;2.60;99.90
28677;DHT22;15858;48.338;11.078;2022-12-07T08:54:36;2.60;99.90
28677;DHT22;15858;48.338;11.078;2022-12-07T08:57:05;2.70;99.90
28677;DHT22;15858;48.338;11.078;2022-12-07T08:59:35;2.70;99.90
28677;DHT22;15858;48.338;11.078;2022-12-07T09:02:02;2.70;99.90
28677;DHT22;15858;48.338;11.078;2022-12-07T09:04:29;2.70;99.90
28677;DHT22;15858;48.338;11.078;2022-12-07T09:06:56;2.70;99.90
28677;DHT22;15858;48.338;11.078;2022-12-07T09:09:22;2.70;99.90
28677;DHT22;15858;48.338;11.078;2022-12-07T09:11:49;2.70;99.90
28677;DHT22;15858;48.338;11.078;2022-12-07T09:14:16;2.60;99.90
28677;DHT22;15858;48.338;11.078;2022-12-07T09:16:42;2.70;99.90
28677;DHT22;15858;48.338;11.078;2022-12-07T09:19:09;2.80;99.90
28677;DHT22;15858;48.338;11.078;2022-12-07T09:21:35;2.80;99.90
28677;DHT22;15858;48.338;11.078;2022-12-07T09:24:02;2.90;99.90
28677;DHT22;15858;48.338;11.078;2022-12-07T09:26:29;2.90;99.90
28677;DHT22;15858;48.338;11.078;2022-12-07T09:28:55;3.00;99.90
28677;DHT22;15858;48.338;11.078;2022-12-07T09:31:22;3.00;99.90
28677;DHT22;15858;48.338;11.078;2022-12-07T09:33:58;3.00;99.90
28677;DHT22;15858;48.338;11.078;2022-12-07T09:36:26;3.10;99.90
28677;DHT22;15858;48.338;11.078;2022-12-07T09:38:55;3.10;99.90
28677;DHT22;15858;48.338;11.078;2022-12-07T09:41:23;3.10;99.90
28677;DHT22;15858;48.338;11.078;2022-12-07T09:43:51;3.20;99.90
28677;DHT22;15858;48.338;11.078;2022-12-07T09:46:19;3.20;99.90
28677;DHT22;15858;48.338;11.078;2022-12-07T09:48:47;3.30;99.90
28677;DHT22;15858;48.338;11.078;2022-12-07T09:51:22;3.30;99.90
28677;DHT22;15858;48.338;11.078;2022-12-07T09:53:56;3.40;99.90
28677;DHT22;15858;48.338;11.078;2022-12-07T09:56:24;3.40;99.90
28677;DHT22;15858;48.338;11.078;2022-12-07T09:58:59;3.50;99.90
28677;DHT22;15858;48.338;11.078;2022-12-07T10:01:29;3.60;99.90
28677;DHT22;15858;48.338;11.078;2022-12-07T10:04:17;3.60;99.90
28677;DHT22;15858;48.338;11.078;2022-12-07T10:06:44;3.70;99.90
28677;DHT22;15858;48.338;11.078;2022-12-07T10:09:16;3.70;99.90
28677;DHT22;15858;48.338;11.078;2022-12-07T10:14:33;3.80;99.90
28677;DHT22;15858;48.338;11.078;2022-12-07T10:17:34;3.80;99.90
28677;DHT22;15858;48.338;11.078;2022-12-07T10:20:20;3.80;99.90
28677;DHT22;15858;48.338;11.078;2022-12-07T10:23:05;3.80;99.90
28677;DHT22;15858;48.338;11.078;2022-12-07T10:25:33;3.80;99.90
28677;DHT22;15858;48.338;11.078;2022-12-07T10:28:20;3.90;99.90
28677;DHT22;15858;48.338;11.078;2022-12-07T10:30:56;3.90;99.90
28677;DHT22;15858;48.338;11.078;2022-12-07T10:33:38;3.90;99.90
28677;DHT22;15858;48.338;11.078;2022-12-07T10:41:54;4.30;99.90
28677;DHT22;15858;48.338;11.078;2022-12-07T10:44:23;4.50;99.90
28677;DHT22;15858;48.338;11.078;2022-12-07T10:52:37;4.70;99.90
28677;DHT22;15858;48.338;11.078;2022-12-07T11:04:07;5.20;99.90
28677;DHT22;15858;48.338;11.078;2022-12-07T11:15:53;5.40;99.90
28677;DHT22;15858;48.338;11.078;2022-12-07T11:18:29;5.40;99.90
28677;DHT22;15858;48.338;11.078;2022-12-07T11:24:06;5.30;99.90
28677;DHT22;15858;48.338;11.078;2022-12-07T11:27:02;5.40;99.90
28677;DHT22;15858;48.338;11.078;2022-12-07T11:29:58;5.40;99.90
28677;DHT22;15858;48.338;11.078;2022-12-07T11:32:40;5.40;99.90
28677;DHT22;15858;48.338;11.078;2022-12-07T11:37:39;5.20;99.90
28677;DHT22;15858;48.338;11.078;2022-12-07T11:40:23;5.20;99.90
28677;DHT22;15858;48.338;11.078;2022-12-07T11:45:42;5.10;99.90
28677;DHT22;15858;48.338;11.078;2022-12-07T11:48:22;5.10;99.90
28677;DHT22;15858;48.338;11.078;2022-12-07T11:50:54;5.10;99.90
28677;DHT22;15858;48.338;11.078;2022-12-07T11:53:30;5.00;99.90
28677;DHT22;15858;48.338;11.078;2022-12-07T11:56:09;4.90;99.90
28677;DHT22;15858;48.338;11.078;2022-12-07T12:06:37;5.00;99.90
28677;DHT22;15858;48.338;11.078;2022-12-07T12:09:19;5.00;99.90
28677;DHT22;15858;48.338;11.078;2022-12-07T12:23:17;5.00;99.90
28677;DHT22;15858;48.338;11.078;2022-12-07T12:25:59;5.10;99.90
28677;DHT22;15858;48.338;11.078;2022-12-07T12:28:40;5.00;99.90
28677;DHT22;15858;48.338;11.078;2022-12-07T12:33:53;5.00;99.90
28677;DHT22;15858;48.338;11.078;2022-12-07T12:36:25;4.90;99.90
28677;DHT22;15858;48.338;11.078;2022-12-07T12:47:03;4.80;99.90
28677;DHT22;15858;48.338;11.078;2022-12-07T12:49:37;4.90;99.90
28677;DHT22;15858;48.338;11.078;2022-12-07T12:55:14;5.00;99.90
28677;DHT22;15858;48.338;11.078;2022-12-07T12:57:41;4.90;99.90
28677;DHT22;15858;48.338;11.078;2022-12-07T13:00:22;4.80;99.90
28677;DHT22;15858;48.338;11.078;2022-12-07T13:02:51;4.70;99.90
28677;DHT22;15858;48.338;11.078;2022-12-07T13:05:27;4.70;99.90
28677;DHT22;15858;48.338;11.078;2022-12-07T13:15:45;4.70;99.90
28677;DHT22;15858;48.338;11.078;2022-12-07T13:18:23;4.60;99.90
28677;DHT22;15858;48.338;11.078;2022-12-07T13:20:52;4.70;99.90
28677;DHT22;15858;48.338;11.078;2022-12-07T13:23:25;4.70;99.90
28677;DHT22;15858;48.338;11.078;2022-12-07T13:28:35;4.70;99.90
28677;DHT22;15858;48.338;11.078;2022-12-07T13:37:48;4.60;99.90
28677;DHT22;15858;48.338;11.078;2022-12-07T13:39:51;4.60;99.90
28677;DHT22;15858;48.338;11.078;2022-12-07T13:42:24;4.70;99.90
28677;DHT22;15858;48.338;11.078;2022-12-07T13:44:51;4.70;99.90
28677;DHT22;15858;48.338;11.078;2022-12-07T13:47:36;4.70;99.90
28677;DHT22;15858;48.338;11.078;2022-12-07T13:50:26;4.80;99.90
28677;DHT22;15858;48.338;11.078;2022-12-07T13:53:00;4.80;99.90
28677;DHT22;15858;48.338;11.078;2022-12-07T13:55:28;4.80;99.90
28677;DHT22;15858;48.338;11.078;2022-12-07T13:57:55;4.80;99.90
28677;DHT22;15858;48.338;11.078;2022-12-07T14:00:26;4.80;99.90
28677;DHT22;15858;48.338;11.078;2022-12-07T14:02:55;4.80;99.90
28677;DHT22;15858;48.338;11.078;2022-12-07T14:05:30;4.80;99.90
28677;DHT22;15858;48.338;11.078;2022-12-07T14:08:02;4.70;99.90
28677;DHT22;15858;48.338;11.078;2022-12-07T14:10:34;4.70;99.90
28677;DHT22;15858;48.338;11.078;2022-12-07T14:13:03;4.70;99.90
28677;DHT22;15858;48.338;11.078;2022-12-07T14:15:50;4.70;99.90
28677;DHT22;15858;48.338;11.078;2022-12-07T14:18:31;4.70;99.90
28677;DHT22;15858;48.338;11.078;2022-12-07T14:21:06;4.60;99.90
28677;DHT22;15858;48.338;11.078;2022-12-07T14:23:33;4.60;99.90
28677;DHT22;15858;48.338;11.078;2022-12-07T14:28:35;4.50;99.90
28677;DHT22;15858;48.338;11.078;2022-12-07T14:31:03;4.50;99.90
28677;DHT22;15858;48.338;11.078;2022-12-07T14:33:30;4.50;99.90
28677;DHT22;15858;48.338;11.078;2022-12-07T14:35:57;4.60;99.90
28677;DHT22;15858;48.338;11.078;2022-12-07T14:38:25;4.40;99.90
28677;DHT22;15858;48.338;11.078;2022-12-07T14:40:53;4.50;99.90
28677;DHT22;15858;48.338;11.078;2022-12-07T14:43:21;4.50;99.90
28677;DHT22;15858;48.338;11.078;2022-12-07T14:45:47;4.50;99.90
28677;DHT22;15858;48.338;11.078;2022-12-07T14:48:15;4.50;99.90
28677;DHT22;15858;48.338;11.078;2022-12-07T14:51:02;4.40;99.90
28677;DHT22;15858;48.338;11.078;2022-12-07T14:53:50;4.40;99.90
28677;DHT22;15858;48.338;11.078;2022-12-07T14:56:23;4.40;99.90
28677;DHT22;15858;48.338;11.078;2022-12-07T14:58:50;4.40;99.90
28677;DHT22;15858;48.338;11.078;2022-12-07T15:01:16;4.40;99.90
28677;DHT22;15858;48.338;11.078;2022-12-07T15:03:43;4.30;99.90
28677;DHT22;15858;48.338;11.078;2022-12-07T15:06:14;4.30;99.90
28677;DHT22;15858;48.338;11.078;2022-12-07T15:08:41;4.30;99.90
28677;DHT22;15858;48.338;11.078;2022-12-07T15:11:12;4.30;99.90
28677;DHT22;15858;48.338;11.078;2022-12-07T15:13:39;4.30;99.90
28677;DHT22;15858;48.338;11.078;2022-12-07T15:16:10;4.20;99.90
28677;DHT22;15858;48.338;11.078;2022-12-07T15:18:37;4.20;99.90
28677;DHT22;15858;48.338;11.078;2022-12-07T15:21:13;4.20;99.90
28677;DHT22;15858;48.338;11.078;2022-12-07T15:23:40;4.10;99.90
28677;DHT22;15858;48.338;11.078;2022-12-07T15:26:07;4.10;99.90
28677;DHT22;15858;48.338;11.078;2022-12-07T15:28:36;4.10;99.90
28677;DHT22;15858;48.338;11.078;2022-12-07T15:31:03;4.10;99.90
28677;DHT22;15858;48.338;11.078;2022-12-07T15:33:49;4.10;99.90
28677;DHT22;15858;48.338;11.078;2022-12-07T15:36:21;4.00;99.90
28677;DHT22;15858;48.338;11.078;2022-12-07T15:38:49;4.00;99.90
28677;DHT22;15858;48.338;11.078;2022-12-07T15:41:36;3.90;99.90
28677;DHT22;15858;48.338;11.078;2022-12-07T15:44:02;3.80;99.90
28677;DHT22;15858;48.338;11.078;2022-12-07T15:46:30;3.80;99.90
28677;DHT22;15858;48.338;11.078;2022-12-07T15:48:57;3.80;99.90
28677;DHT22;15858;48.338;11.078;2022-12-07T15:51:24;3.80;99.90
28677;DHT22;15858;48.338;11.078;2022-12-07T15:53:51;3.80;99.90
28677;DHT22;15858;48.338;11.078;2022-12-07T15:56:18;3.70;99.90
28677;DHT22;15858;48.338;11.078;2022-12-07T15:58:44;3.70;99.90
28677;DHT22;15858;48.338;11.078;2022-12-07T16:01:12;3.70;99.90
28677;DHT22;15858;48.338;11.078;2022-12-07T16:03:39;3.60;99.90
28677;DHT22;15858;48.338;11.078;2022-12-07T16:06:06;3.60;99.90
28677;DHT22;15858;48.338;11.078;2022-12-07T16:08:33;3.60;99.90
28677;DHT22;15858;48.338;11.078;2022-12-07T16:11:08;3.60;99.90
28677;DHT22;15858;48.338;11.078;2022-12-07T16:13:34;3.60;99.90
28677;DHT22;15858;48.338;11.078;2022-12-07T16:16:06;3.50;99.90
28677;DHT22;15858;48.338;11.078;2022-12-07T16:18:33;3.50;99.90
28677;DHT22;15858;48.338;11.078;2022-12-07T16:20:59;3.50;99.90
28677;DHT22;15858;48.338;11.078;2022-12-07T16:23:27;3.40;99.90
28677;DHT22;15858;48.338;11.078;2022-12-07T16:25:53;3.40;99.90
28677;DHT22;15858;48.338;11.078;2022-12-07T16:28:20;3.40;99.90
28677;DHT22;15858;48.338;11.078;2022-12-07T16:30:47;3.30;99.90
28677;DHT22;15858;48.338;11.078;2022-12-07T16:33:13;3.30;99.90
28677;DHT22;15858;48.338;11.078;2022-12-07T16:35:40;3.20;99.90
28677;DHT22;15858;48.338;11.078;2022-12-07T16:38:07;3.30;99.90
28677;DHT22;15858;48.338;11.078;2022-12-07T16:40:33;3.20;99.90
28677;DHT22;15858;48.338;11.078;2022-12-07T16:43:00;3.20;99.90
28677;DHT22;15858;48.338;11.078;2022-12-07T16:45:27;3.10;99.90
28677;DHT22;15858;48.338;11.078;2022-12-07T16:47:54;3.10;99.90
28677;DHT22;15858;48.338;11.078;2022-12-07T16:50:20;3.10;99.90
28677;DHT22;15858;48.338;11.078;2022-12-07T16:52:47;3.00;99.90
28677;DHT22;15858;48.338;11.078;2022-12-07T16:55:14;3.00;99.90
28677;DHT22;15858;48.338;11.078;2022-12-07T16:57:40;3.00;99.90
28677;DHT22;15858;48.338;11.078;2022-12-07T17:00:07;2.90;99.90
28677;DHT22;15858;48.338;11.078;2022-12-07T17:02:34;2.90;99.90
28677;DHT22;15858;48.338;11.078;2022-12-07T17:05:01;2.90;99.90
28677;DHT22;15858;48.338;11.078;2022-12-07T17:07:28;2.80;99.90
28677;DHT22;15858;48.338;11.078;2022-12-07T17:09:54;2.80;99.90
28677;DHT22;15858;48.338;11.078;2022-12-07T17:12:21;2.80;99.90
28677;DHT22;15858;48.338;11.078;2022-12-07T17:14:48;2.70;99.90
28677;DHT22;15858;48.338;11.078;2022-12-07T17:17:15;2.70;99.90
28677;DHT22;15858;48.338;11.078;2022-12-07T17:19:41;2.60;99.90
28677;DHT22;15858;48.338;11.078;2022-12-07T17:22:08;2.60;99.90
28677;DHT22;15858;48.338;11.078;2022-12-07T17:24:34;2.50;99.90
28677;DHT22;15858;48.338;11.078;2022-12-07T17:27:01;2.50;99.90
28677;DHT22;15858;48.338;11.078;2022-12-07T17:29:28;2.40;99.90
28677;DHT22;15858;48.338;11.078;2022-12-07T17:31:54;2.40;99.90
28677;DHT22;15858;48.338;11.078;2022-12-07T17:34:21;2.30;99.90
28677;DHT22;15858;48.338;11.078;2022-12-07T17:36:48;2.30;99.90
28677;DHT22;15858;48.338;11.078;2022-12-07T17:39:17;2.30;99.90